createdAt,value
2022-09-07T00:10:10.176Z,19.5
2022-09-07T00:22:32.358Z,18.9
2022-09-07T00:34:23.319Z,18.9
2022-09-07T00:40:23.069Z,18.8
2022-09-07T01:16:59.401Z,18.8
2022-09-07T01:23:01.021Z,19
2022-09-07T01:28:54.321Z,19
2022-09-07T01:34:53.842Z,18.8
2022-09-07T01:47:07.628Z,19
2022-09-07T01:59:32.836Z,19.1
2022-09-07T02:12:14.276Z,19.2
2022-09-07T02:18:45.694Z,18.5
2022-09-07T02:24:52.734Z,18.6
2022-09-07T02:43:23.216Z,18.8
2022-09-07T02:55:37.243Z,18.6
2022-09-07T03:01:35.341Z,18.7
2022-09-07T03:20:05.637Z,18.6
2022-09-07T03:26:03.345Z,18.1
2022-09-07T03:32:01.819Z,17.8
2022-09-07T03:37:53.757Z,18.3
2022-09-07T03:43:55.414Z,18.3
2022-09-07T03:49:54.310Z,18.2
2022-09-07T04:02:04.495Z,18
2022-09-07T04:20:23.033Z,18.1
2022-09-07T04:26:14.019Z,18.1
2022-09-07T04:32:05.196Z,18.3
2022-09-07T04:38:05.905Z,18
2022-09-07T04:50:11.783Z,17.7
2022-09-07T04:56:16.395Z,18
2022-09-07T05:02:14.050Z,18.1
2022-09-07T05:08:14.465Z,18.3
2022-09-07T05:14:06.794Z,18.1
2022-09-07T05:19:59.432Z,18.3
2022-09-07T05:25:48.836Z,18.3
2022-09-07T05:31:37.515Z,18.4
2022-09-07T05:37:27.007Z,18.3
2022-09-07T05:43:17.014Z,18.4
2022-09-07T05:49:06.930Z,18.2
2022-09-07T05:55:03.160Z,18.3
2022-09-07T06:01:17.429Z,18.4
2022-09-07T06:07:22.614Z,18.5
2022-09-07T06:13:12.096Z,18.6
2022-09-07T06:19:03.571Z,18.8
2022-09-07T06:24:54.205Z,18.9
2022-09-07T06:30:45.411Z,19
2022-09-07T06:36:36.752Z,19
2022-09-07T06:42:30.063Z,19.1
2022-09-07T06:48:21.674Z,19.1
2022-09-07T07:00:48.548Z,19.4
2022-09-07T07:06:40.538Z,19.5
2022-09-07T07:18:21.067Z,19.5
2022-09-07T07:24:13.521Z,19.8
2022-09-07T07:30:05.099Z,20
2022-09-07T07:35:56.153Z,20
2022-09-07T07:41:55.223Z,20
2022-09-07T07:47:53.479Z,20.2
2022-09-07T07:53:44.418Z,20.4
2022-09-07T07:59:35.978Z,20.5
2022-09-07T08:05:26.771Z,20.5
2022-09-07T08:11:19.868Z,20.6
2022-09-07T08:17:14.273Z,20.7
2022-09-07T08:23:05.271Z,20.9
2022-09-07T08:28:57.394Z,21
2022-09-07T08:34:49.709Z,21.1
2022-09-07T08:40:46.868Z,21.4
2022-09-07T08:46:39.159Z,21.3
2022-09-07T08:52:35.800Z,21.5
2022-09-07T09:11:11.364Z,21.6
2022-09-07T09:17:03.010Z,21.9
2022-09-07T09:22:57.226Z,22.1
2022-09-07T09:28:50.768Z,22
2022-09-07T09:34:42.002Z,22.3
2022-09-07T09:40:33.001Z,22.3
2022-09-07T09:46:25.631Z,22.7
2022-09-07T09:52:29.511Z,22.9
2022-09-07T10:06:04.695Z,23.2
2022-09-07T10:12:11.858Z,23.2
2022-09-07T10:18:01.540Z,23.3
2022-09-07T10:23:53.998Z,23.3
2022-09-07T10:29:44.802Z,23.5
2022-09-07T10:35:38.228Z,23.7
2022-09-07T10:41:30.274Z,23.8
2022-09-07T10:47:24.731Z,24.2
2022-09-07T10:53:39.337Z,24.8
2022-09-07T11:00:11.773Z,24.2
2022-09-07T11:06:03.438Z,24.2
2022-09-07T11:14:13.844Z,24.3
2022-09-07T11:20:02.463Z,24
2022-09-07T11:25:54.067Z,24.1
2022-09-07T11:31:46.243Z,23.9
2022-09-07T11:37:36.720Z,23.9
2022-09-07T11:43:30.414Z,24.2
2022-09-07T11:49:21.472Z,24.4
2022-09-07T11:55:20.706Z,24.6
2022-09-07T12:01:32.644Z,24.5
2022-09-07T12:07:59.355Z,24.5
2022-09-07T12:19:59.034Z,25
2022-09-07T12:26:07.717Z,25.3
2022-09-07T12:32:07.520Z,25.4
2022-09-07T12:38:51.875Z,25.7
2022-09-07T12:44:58.347Z,25.6
2022-09-07T13:09:43.016Z,25.6
2022-09-07T13:21:32.109Z,25.5
2022-09-07T13:27:27.061Z,25.7
2022-09-07T13:33:27.665Z,25.8
2022-09-07T13:39:27.493Z,26.3
2022-09-07T13:45:21.545Z,26.5
2022-09-07T13:51:29.169Z,26.6
2022-09-07T13:57:18.616Z,26.7
2022-09-07T14:03:21.635Z,26.7
2022-09-07T14:09:16.821Z,26.3
2022-09-07T14:15:20.011Z,26.5
2022-09-07T14:21:12.002Z,26.6
2022-09-07T14:27:03.882Z,26.5
2022-09-07T14:32:54.320Z,26.3
2022-09-07T14:45:09.677Z,26.1
2022-09-07T14:51:26.865Z,26.2
2022-09-07T14:57:23.121Z,26.3
2022-09-07T15:03:13.095Z,26.3
2022-09-07T15:09:04.410Z,26.4
2022-09-07T15:14:56.334Z,26.5
2022-09-07T15:20:46.204Z,26.2
2022-09-07T15:32:56.926Z,25.9
2022-09-07T15:39:03.364Z,26.1
2022-09-07T15:44:53.965Z,26
2022-09-07T15:50:46.818Z,26
2022-09-07T15:57:47.603Z,26
2022-09-07T16:03:55.165Z,26
2022-09-07T16:09:52.445Z,25.8
2022-09-07T16:15:46.937Z,25.7
2022-09-07T16:21:40.998Z,25.7
2022-09-07T16:27:33.005Z,25.8
2022-09-07T16:33:29.079Z,25.7
2022-09-07T16:39:29.234Z,25.7
2022-09-07T17:08:36.832Z,25.4
2022-09-07T17:14:28.749Z,25.3
2022-09-07T17:20:21.097Z,25
2022-09-07T17:26:12.522Z,24.9
2022-09-07T17:45:12.834Z,24.4
2022-09-07T17:51:03.483Z,24.3
2022-09-07T17:56:54.415Z,24
2022-09-07T18:02:46.442Z,23.8
2022-09-07T18:08:37.368Z,23.8
2022-09-07T18:14:28.051Z,23.4
2022-09-07T18:20:19.135Z,23.4
2022-09-07T18:26:10.595Z,23.3
2022-09-07T18:32:02.018Z,23.2
2022-09-07T18:37:57.013Z,23
2022-09-07T18:43:50.579Z,23
2022-09-07T18:49:42.134Z,22.9
2022-09-07T18:55:34.009Z,22.7
2022-09-07T19:01:28.350Z,22.7
2022-09-07T19:07:19.641Z,22.5
2022-09-07T19:13:16.646Z,22.5
2022-09-07T19:19:07.299Z,22.5
2022-09-07T19:24:58.346Z,22.4
2022-09-07T19:30:48.679Z,22.1
2022-09-07T19:36:39.065Z,22
2022-09-07T19:42:29.141Z,21.7
2022-09-07T19:48:19.349Z,21.8
2022-09-07T19:54:09.998Z,21.7
2022-09-07T20:00:00.724Z,21.7
2022-09-07T20:05:51.964Z,21.2
2022-09-07T20:11:46.206Z,21.1
2022-09-07T20:17:35.653Z,21.3
2022-09-07T20:23:25.986Z,20.8
2022-09-07T20:29:27.168Z,20.9
2022-09-07T20:35:17.035Z,20.6
2022-09-07T20:41:07.302Z,20.9
2022-09-07T20:46:58.957Z,20.9
2022-09-07T20:52:49.908Z,20.5
2022-09-07T20:58:41.086Z,20.6
2022-09-07T21:04:32.294Z,20.6
2022-09-07T21:10:24.185Z,20.4
2022-09-07T21:16:14.990Z,20
2022-09-07T21:22:05.839Z,20.2
2022-09-07T21:27:57.376Z,19.9
2022-09-07T21:33:48.125Z,19.9
2022-09-07T21:39:39.336Z,19.9
2022-09-07T21:45:30.491Z,19.7
2022-09-07T21:51:21.915Z,19.7
2022-09-07T21:57:13.822Z,19.6
2022-09-07T22:03:05.228Z,19.8
2022-09-07T22:08:56.074Z,19.8
2022-09-07T22:14:46.642Z,19.7
2022-09-07T22:20:37.102Z,19.8
2022-09-07T22:26:28.073Z,19.7
2022-09-07T22:32:19.572Z,19.6
2022-09-07T22:38:10.403Z,19.5
2022-09-07T22:44:01.406Z,19.6
2022-09-07T22:49:54.442Z,19.1
2022-09-07T22:55:46.830Z,19.2
2022-09-07T23:01:39.293Z,19.5
2022-09-07T23:07:36.039Z,19.5
2022-09-07T23:13:35.223Z,19.4
